createdAt,value
2022-08-12T00:00:21.242Z,3.75
2022-08-12T00:03:07.399Z,3.92
2022-08-12T00:06:01.959Z,3.85
2022-08-12T00:08:52.286Z,3.80
2022-08-12T00:11:40.007Z,4.10
2022-08-12T00:14:26.307Z,3.95
2022-08-12T00:17:12.248Z,4.30
2022-08-12T00:19:58.347Z,4.07
2022-08-12T00:22:44.231Z,3.70
2022-08-12T00:26:05.506Z,4.15
2022-08-12T00:28:37.225Z,3.80
2022-08-12T00:31:23.063Z,3.88
2022-08-12T00:34:08.820Z,3.85
2022-08-12T00:37:00.874Z,3.97
2022-08-12T00:39:51.460Z,3.80
2022-08-12T00:42:21.199Z,4.20
2022-08-12T00:44:51.154Z,3.80
2022-08-12T00:47:24.480Z,4.53
2022-08-12T00:49:55.832Z,4.20
2022-08-12T00:52:25.224Z,4.50
2022-08-12T00:54:57.124Z,3.90
2022-08-12T00:57:29.302Z,4.90
2022-08-12T01:00:01.073Z,4.55
2022-08-12T01:02:31.576Z,4.80
2022-08-12T01:05:19.997Z,4.10
2022-08-12T01:08:07.447Z,4.43
2022-08-12T01:10:55.727Z,4.28
2022-08-12T01:13:24.645Z,4.40
2022-08-12T01:15:55.994Z,4.68
2022-08-12T01:18:26.701Z,4.63
2022-08-12T01:21:07.817Z,4.45
2022-08-12T01:23:47.383Z,4.60
2022-08-12T01:26:21.062Z,4.93
2022-08-12T01:28:51.728Z,4.72
2022-08-12T01:31:21.657Z,4.63
2022-08-12T01:34:03.748Z,4.60
2022-08-12T01:36:37.439Z,4.80
2022-08-12T01:39:06.509Z,4.65
2022-08-12T01:41:41.175Z,4.40
2022-08-12T01:44:12.853Z,4.63
2022-08-12T01:46:54.512Z,3.90
2022-08-12T01:49:48.625Z,4.00
2022-08-12T01:52:30.197Z,3.80
2022-08-12T01:55:01.156Z,4.30
2022-08-12T01:57:59.468Z,4.40
2022-08-12T02:00:54.834Z,4.22
2022-08-12T02:04:11.097Z,3.97
2022-08-12T02:07:06.569Z,4.15
2022-08-12T02:10:49.327Z,3.75
2022-08-12T02:13:10.061Z,3.70
2022-08-12T02:15:46.341Z,3.80
2022-08-12T02:18:26.118Z,3.97
2022-08-12T02:21:02.720Z,3.90
2022-08-12T02:23:32.518Z,4.10
2022-08-12T02:26:07.083Z,3.88
2022-08-12T02:28:38.417Z,3.72
2022-08-12T02:31:09.129Z,4.10
2022-08-12T02:33:38.802Z,3.85
2022-08-12T02:36:07.719Z,3.90
2022-08-12T02:38:37.888Z,3.80
2022-08-12T02:41:08.965Z,4.13
2022-08-12T02:43:44.474Z,3.65
2022-08-12T02:46:15.331Z,3.47
2022-08-12T02:48:51.219Z,3.70
2022-08-12T02:51:23.903Z,3.78
2022-08-12T02:54:05.624Z,3.90
2022-08-12T02:56:41.069Z,3.83
2022-08-12T02:59:13.017Z,4.22
2022-08-12T03:01:48.146Z,4.05
2022-08-12T03:04:26.894Z,3.55
2022-08-12T03:07:09.625Z,3.70
2022-08-12T03:10:03.747Z,4.00
2022-08-12T03:12:48.746Z,3.88
2022-08-12T03:15:22.936Z,3.97
2022-08-12T03:18:26.101Z,3.70
2022-08-12T03:20:43.663Z,3.63
2022-08-12T03:23:23.049Z,3.80
2022-08-12T03:26:00.735Z,3.75
2022-08-12T03:28:48.567Z,3.80
2022-08-12T03:31:26.119Z,4.10
2022-08-12T03:34:01.643Z,3.92
2022-08-12T03:36:35.046Z,3.90
2022-08-12T03:39:36.263Z,3.58
2022-08-12T03:42:17.239Z,3.70
2022-08-12T03:45:11.723Z,3.60
2022-08-12T03:48:06.198Z,3.92
2022-08-12T03:50:52.012Z,3.67
2022-08-12T03:53:44.775Z,3.47
2022-08-12T03:56:30.602Z,3.75
2022-08-12T03:59:17.855Z,3.72
2022-08-12T04:01:57.736Z,3.85
2022-08-12T04:04:33.980Z,4.13
2022-08-12T04:07:03.254Z,3.60
2022-08-12T04:09:31.722Z,3.60
2022-08-12T04:12:17.630Z,4.32
2022-08-12T04:14:45.699Z,4.10
2022-08-12T04:17:14.402Z,3.80
2022-08-12T04:19:44.449Z,3.97
2022-08-12T04:22:12.516Z,3.90
2022-08-12T04:24:42.907Z,4.20
2022-08-12T04:27:16.846Z,3.58
2022-08-12T04:30:17.010Z,4.05
2022-08-12T04:32:33.247Z,4.10
2022-08-12T04:35:03.826Z,3.75
2022-08-12T04:37:59.002Z,3.92
2022-08-12T04:40:28.526Z,3.58
2022-08-12T04:42:57.154Z,4.05
2022-08-12T04:45:25.267Z,4.07
2022-08-12T04:47:53.603Z,3.50
2022-08-12T04:50:33.997Z,3.47
2022-08-12T04:53:06.225Z,3.58
2022-08-12T04:55:35.642Z,3.63
2022-08-12T04:58:03.697Z,3.92
2022-08-12T05:00:31.977Z,3.55
2022-08-12T05:03:00.315Z,3.75
2022-08-12T05:05:35.221Z,3.70
2022-08-12T05:08:04.791Z,4.10
2022-08-12T05:10:35.872Z,3.80
2022-08-12T05:13:08.339Z,3.90
2022-08-12T05:16:04.827Z,4.50
2022-08-12T05:18:29.367Z,3.88
2022-08-12T05:21:00.341Z,4.25
2022-08-12T05:23:29.046Z,4.07
2022-08-12T05:25:57.546Z,4.28
2022-08-12T05:28:26.923Z,3.85
2022-08-12T05:30:56.412Z,4.00
2022-08-12T05:33:37.586Z,4.07
2022-08-12T05:36:08.761Z,3.78
2022-08-12T05:38:55.085Z,3.63
2022-08-12T05:41:24.378Z,4.18
2022-08-12T05:43:54.381Z,3.72
2022-08-12T05:46:23.566Z,3.92
2022-08-12T05:48:54.341Z,3.65
2022-08-12T05:51:30.020Z,4.30
2022-08-12T05:54:09.175Z,4.10
2022-08-12T05:56:38.340Z,4.78
2022-08-12T05:59:07.655Z,4.30
2022-08-12T06:02:09.752Z,3.88
2022-08-12T06:04:24.518Z,4.10
2022-08-12T06:06:53.998Z,3.78
2022-08-12T06:09:22.831Z,3.75
2022-08-12T06:12:04.632Z,3.78
2022-08-12T06:14:36.937Z,4.13
2022-08-12T06:17:07.953Z,3.50
2022-08-12T06:20:22.722Z,4.07
2022-08-12T06:22:26.745Z,3.63
2022-08-12T06:24:54.869Z,3.70
2022-08-12T06:27:23.023Z,3.85
2022-08-12T06:30:09.310Z,3.85
2022-08-12T06:32:51.663Z,3.30
2022-08-12T06:35:48.415Z,3.42
2022-08-12T06:38:19.171Z,3.53
2022-08-12T06:41:06.368Z,3.70
2022-08-12T06:44:06.771Z,3.35
2022-08-12T06:46:24.045Z,3.38
2022-08-12T06:48:56.323Z,3.60
2022-08-12T06:51:24.855Z,3.45
2022-08-12T06:53:55.942Z,3.60
2022-08-12T06:56:39.828Z,3.67
2022-08-12T06:59:14.765Z,3.60
2022-08-12T07:01:51.199Z,3.40
2022-08-12T07:04:37.274Z,3.80
2022-08-12T07:07:07.494Z,3.33
2022-08-12T07:10:03.624Z,3.40
2022-08-12T07:12:28.087Z,3.55
2022-08-12T07:15:05.659Z,3.38
2022-08-12T07:17:37.591Z,3.22
2022-08-12T07:20:29.463Z,3.45
2022-08-12T07:22:58.614Z,3.33
2022-08-12T07:25:40.941Z,3.55
2022-08-12T07:28:16.142Z,3.72
2022-08-12T07:30:46.023Z,3.70
2022-08-12T07:33:16.773Z,2.97
2022-08-12T07:35:48.155Z,3.47
2022-08-12T07:38:28.970Z,3.40
2022-08-12T07:41:03.223Z,3.35
2022-08-12T07:43:32.765Z,3.70
2022-08-12T07:46:02.872Z,3.05
2022-08-12T07:48:37.915Z,3.55
2022-08-12T07:51:06.935Z,4.03
2022-08-12T07:53:47.772Z,3.67
2022-08-12T07:56:27.468Z,3.40
2022-08-12T07:58:59.242Z,3.40
2022-08-12T08:01:28.204Z,2.97
2022-08-12T08:04:18.802Z,3.30
2022-08-12T08:06:48.272Z,3.65
2022-08-12T08:09:19.147Z,3.00
2022-08-12T08:12:07.186Z,3.03
2022-08-12T08:14:35.406Z,3.28
2022-08-12T08:17:06.589Z,3.20
2022-08-12T08:20:02.139Z,3.30
2022-08-12T08:22:40.613Z,3.40
2022-08-12T08:25:35.206Z,3.20
2022-08-12T08:28:01.782Z,3.13
2022-08-12T08:30:32.013Z,2.97
2022-08-12T08:33:00.527Z,3.10
2022-08-12T08:35:46.579Z,3.20
2022-08-12T08:38:33.268Z,2.75
2022-08-12T08:42:19.187Z,3.60
2022-08-12T08:44:12.101Z,3.40
2022-08-12T08:46:40.505Z,2.92
2022-08-12T08:49:09.391Z,3.10
2022-08-12T08:51:38.585Z,3.22
2022-08-12T08:54:08.723Z,3.20
2022-08-12T08:56:45.333Z,3.40
2022-08-12T08:59:15.307Z,3.20
2022-08-12T09:01:44.530Z,3.30
2022-08-12T09:05:08.691Z,3.60
2022-08-12T09:07:16.980Z,3.22
2022-08-12T09:10:02.615Z,3.45
2022-08-12T09:12:55.004Z,3.08
2022-08-12T09:15:35.480Z,3.70
2022-08-12T09:18:16.907Z,3.45
2022-08-12T09:20:55.147Z,3.58
2022-08-12T09:24:00.567Z,3.50
2022-08-12T09:26:11.491Z,3.30
2022-08-12T09:28:41.117Z,3.28
2022-08-12T09:32:03.245Z,3.38
2022-08-12T09:34:28.680Z,3.30
2022-08-12T09:37:00.216Z,3.42
2022-08-12T09:40:06.163Z,3.10
2022-08-12T09:42:43.641Z,3.20
2022-08-12T09:46:06.411Z,3.60
2022-08-12T09:48:19.761Z,3.30
2022-08-12T09:50:52.013Z,3.17
2022-08-12T09:53:29.365Z,3.42
2022-08-12T09:56:40.074Z,3.30
2022-08-12T09:59:00.095Z,3.28
2022-08-12T10:01:35.307Z,2.80
2022-08-12T10:04:20.609Z,3.00
2022-08-12T10:06:55.475Z,3.08
2022-08-12T10:09:57.468Z,2.83
2022-08-12T10:12:33.251Z,2.80
2022-08-12T10:15:02.732Z,3.00
2022-08-12T10:17:31.177Z,2.90
2022-08-12T10:20:01.488Z,2.95
2022-08-12T10:22:36.875Z,2.97
2022-08-12T10:26:34.761Z,2.78
2022-08-12T10:28:32.005Z,2.88
2022-08-12T10:31:01.488Z,2.80
2022-08-12T10:33:33.655Z,2.70
2022-08-12T10:36:13.714Z,3.00
2022-08-12T10:38:44.144Z,2.95
2022-08-12T10:41:56.788Z,2.35
2022-08-12T10:44:18.930Z,2.95
2022-08-12T10:46:49.161Z,2.40
2022-08-12T10:50:02.761Z,2.60
2022-08-12T10:52:34.427Z,2.95
2022-08-12T10:54:58.895Z,2.67
2022-08-12T10:58:13.018Z,2.53
2022-08-12T11:00:32.751Z,2.55
2022-08-12T11:04:28.360Z,2.88
2022-08-12T11:07:05.149Z,2.53
2022-08-12T11:08:46.399Z,2.72
2022-08-12T11:12:07.578Z,2.33
2022-08-12T11:14:48.563Z,2.40
2022-08-12T11:17:34.252Z,2.30
2022-08-12T11:19:46.488Z,2.83
2022-08-12T11:22:14.833Z,2.30
2022-08-12T11:24:51.075Z,2.72
2022-08-12T11:27:20.281Z,2.80
2022-08-12T11:30:05.726Z,2.70
2022-08-12T11:32:38.743Z,2.80
2022-08-12T11:35:08.987Z,2.78
2022-08-12T11:37:58.140Z,2.85
2022-08-12T11:40:29.694Z,3.28
2022-08-12T11:43:19.376Z,2.78
2022-08-12T11:45:47.983Z,2.90
2022-08-12T11:48:26.658Z,3.33
2022-08-12T11:50:56.492Z,2.90
2022-08-12T11:53:58.843Z,2.70
2022-08-12T11:56:14.578Z,3.22
2022-08-12T12:02:02.813Z,2.50
2022-08-12T12:04:28.734Z,2.50
2022-08-12T12:07:07.593Z,2.85
2022-08-12T12:09:51.884Z,2.55
2022-08-12T12:12:25.253Z,2.85
2022-08-12T12:14:54.854Z,2.80
2022-08-12T12:17:24.547Z,3.05
2022-08-12T12:19:53.320Z,3.05
2022-08-12T12:22:26.807Z,3.00
2022-08-12T12:25:12.926Z,3.00
2022-08-12T12:28:06.082Z,2.80
2022-08-12T12:30:35.423Z,2.80
2022-08-12T12:33:05.031Z,3.13
2022-08-12T12:36:17.588Z,3.03
2022-08-12T12:38:25.419Z,3.38
2022-08-12T12:40:54.743Z,2.90
2022-08-12T12:43:28.992Z,3.15
2022-08-12T12:46:11.642Z,3.08
2022-08-12T12:48:44.136Z,3.25
2022-08-12T12:51:22.161Z,3.38
2022-08-12T12:54:10.202Z,3.22
2022-08-12T12:56:42.517Z,3.35
2022-08-12T12:59:33.838Z,3.35
2022-08-12T13:02:08.138Z,3.58
2022-08-12T13:04:37.863Z,3.50
2022-08-12T13:07:06.939Z,3.35
2022-08-12T13:09:36.120Z,3.40
2022-08-12T13:12:10.433Z,3.40
2022-08-12T13:14:40.522Z,3.53
2022-08-12T13:17:16.851Z,3.33
2022-08-12T13:19:50.073Z,3.42
2022-08-12T13:22:23.737Z,3.50
2022-08-12T13:24:56.303Z,3.42
2022-08-12T13:27:34.912Z,3.30
2022-08-12T13:30:11.085Z,3.50
2022-08-12T13:32:42.058Z,3.65
2022-08-12T13:35:20.105Z,3.30
2022-08-12T13:38:02.813Z,3.50
2022-08-12T13:40:33.823Z,3.30
2022-08-12T13:43:06.395Z,3.70
2022-08-12T13:45:36.909Z,3.65
2022-08-12T13:48:06.889Z,3.90
2022-08-12T13:50:37.531Z,3.78
2022-08-12T13:53:26.193Z,3.97
2022-08-12T13:55:59.595Z,3.50
2022-08-12T13:58:32.902Z,3.65
2022-08-12T14:01:06.478Z,3.45
2022-08-12T14:03:51.369Z,3.63
2022-08-12T14:06:30.440Z,3.58
2022-08-12T14:09:00.646Z,3.75
2022-08-12T14:11:48.283Z,3.40
2022-08-12T14:14:27.762Z,3.75
2022-08-12T14:17:05.691Z,3.55
2022-08-12T14:19:48.711Z,3.80
2022-08-12T14:22:26.135Z,3.47
2022-08-12T14:24:55.417Z,3.42
2022-08-12T14:28:03.732Z,3.50
2022-08-12T14:30:29.527Z,3.53
2022-08-12T14:33:03.443Z,3.55
2022-08-12T14:35:41.289Z,3.30
2022-08-12T14:38:18.025Z,3.50
2022-08-12T14:40:52.494Z,4.10
2022-08-12T14:43:21.847Z,3.47
2022-08-12T14:45:54.296Z,3.35
2022-08-12T14:48:24.730Z,3.33
2022-08-12T14:52:38.987Z,3.40
2022-08-12T14:55:36.258Z,4.25
2022-08-12T14:59:57.199Z,3.75
2022-08-12T15:02:29.685Z,3.35
2022-08-12T15:05:03.428Z,3.63
2022-08-12T15:07:34.017Z,3.50
2022-08-12T15:10:31.875Z,3.33
2022-08-12T15:13:07.114Z,3.08
2022-08-12T15:15:44.157Z,3.75
2022-08-12T15:18:21.537Z,3.50
2022-08-12T15:20:54.692Z,3.20
2022-08-12T15:23:29.262Z,3.47
2022-08-12T15:26:05.549Z,3.60
2022-08-12T15:28:37.966Z,3.30
2022-08-12T15:31:21.456Z,3.42
2022-08-12T15:33:57.171Z,3.40
2022-08-12T15:36:53.820Z,3.50
2022-08-12T15:39:17.651Z,3.35
2022-08-12T15:41:49.204Z,3.40
2022-08-12T15:44:37.739Z,3.30
2022-08-12T15:47:07.491Z,3.20
2022-08-12T15:49:54.530Z,3.03
2022-08-12T16:01:56.082Z,2.67
2022-08-12T16:08:43.346Z,2.70
2022-08-12T16:11:21.823Z,2.63
2022-08-12T16:14:23.131Z,3.08
2022-08-12T16:21:51.203Z,2.75
2022-08-12T16:25:10.286Z,2.45
2022-08-12T16:31:57.928Z,3.00
2022-08-12T16:34:42.179Z,2.67
2022-08-12T16:41:33.382Z,2.72
2022-08-12T16:44:35.056Z,2.60
2022-08-12T16:50:36.493Z,3.00
2022-08-12T17:02:10.881Z,2.50
2022-08-12T17:05:06.204Z,2.60
2022-08-12T17:08:15.519Z,2.40
2022-08-12T17:11:18.316Z,2.50
2022-08-12T17:13:53.546Z,2.58
2022-08-12T17:16:57.140Z,2.58
2022-08-12T17:20:30.140Z,2.60
2022-08-12T17:26:14.184Z,2.75
2022-08-12T17:28:52.238Z,2.90
2022-08-12T17:32:01.124Z,2.72
2022-08-12T17:34:34.497Z,2.60
2022-08-12T17:41:56.850Z,2.72
2022-08-12T17:44:23.064Z,2.80
2022-08-12T17:47:20.144Z,2.97
2022-08-12T17:50:17.885Z,2.97
2022-08-12T17:52:50.032Z,2.70
2022-08-12T17:55:43.783Z,3.08
2022-08-12T17:58:58.031Z,3.00
2022-08-12T18:01:39.229Z,2.85
2022-08-12T18:04:22.117Z,3.13
2022-08-12T18:07:09.894Z,3.30
2022-08-12T18:09:41.278Z,3.30
2022-08-12T18:12:31.771Z,3.53
2022-08-12T18:15:08.996Z,2.95
2022-08-12T18:17:39.646Z,2.88
2022-08-12T18:20:15.847Z,2.90
2022-08-12T18:22:45.690Z,2.95
2022-08-12T18:26:16.755Z,2.70
2022-08-12T18:28:29.108Z,2.72
2022-08-12T18:31:03.368Z,2.40
2022-08-12T18:33:41.637Z,2.92
2022-08-12T18:36:14.174Z,2.90
2022-08-12T18:38:44.669Z,3.08
2022-08-12T18:41:33.674Z,3.35
2022-08-12T18:44:06.090Z,2.97
2022-08-12T18:46:54.069Z,2.85
2022-08-12T18:49:30.646Z,2.80
2022-08-12T18:52:04.370Z,3.03
2022-08-12T18:54:36.135Z,2.67
2022-08-12T18:57:16.080Z,3.22
2022-08-12T19:00:01.712Z,2.63
2022-08-12T19:02:36.301Z,2.80
2022-08-12T19:05:10.010Z,2.75
2022-08-12T19:07:50.120Z,3.22
2022-08-12T19:10:30.244Z,2.47
2022-08-12T19:13:23.860Z,2.85
2022-08-12T19:15:57.402Z,2.63
2022-08-12T19:18:29.274Z,2.97
2022-08-12T19:20:59.052Z,2.92
2022-08-12T19:23:35.357Z,2.67
2022-08-12T19:26:03.537Z,2.75
2022-08-12T19:28:36.570Z,2.72
2022-08-12T19:31:45.089Z,2.72
2022-08-12T19:37:26.564Z,2.70
2022-08-12T19:40:08.908Z,2.72
2022-08-12T19:42:44.288Z,2.90
2022-08-12T19:45:17.657Z,3.10
2022-08-12T19:47:46.838Z,2.80
2022-08-12T19:50:20.160Z,2.90
2022-08-12T19:52:53.391Z,2.63
2022-08-12T19:55:24.762Z,2.70
2022-08-12T19:58:02.694Z,2.88
2022-08-12T20:00:34.822Z,2.78
2022-08-12T20:03:07.735Z,2.65
2022-08-12T20:06:04.905Z,2.53
2022-08-12T20:08:33.193Z,2.60
2022-08-12T20:12:09.440Z,2.72
2022-08-12T20:14:01.206Z,2.60
2022-08-12T20:16:57.727Z,3.05
2022-08-12T20:19:52.697Z,2.83
2022-08-12T20:22:24.351Z,2.60
2022-08-12T20:25:01.407Z,3.22
2022-08-12T20:28:05.495Z,2.90
2022-08-12T20:30:52.861Z,2.92
2022-08-12T20:33:18.724Z,2.65
2022-08-12T20:36:13.214Z,2.78
2022-08-12T20:38:46.560Z,2.88
2022-08-12T20:41:17.646Z,2.80
2022-08-12T20:43:50.730Z,3.00
2022-08-12T20:46:21.327Z,3.00
2022-08-12T20:48:54.923Z,2.95
2022-08-12T20:51:27.777Z,2.70
2022-08-12T20:54:00.219Z,2.92
2022-08-12T20:56:34.716Z,2.72
2022-08-12T20:59:06.723Z,2.90
2022-08-12T21:01:46.140Z,2.95
2022-08-12T21:04:35.384Z,3.00
2022-08-12T21:07:09.371Z,2.75
2022-08-12T21:09:42.782Z,2.90
2022-08-12T21:12:27.675Z,3.22
2022-08-12T21:15:22.974Z,3.20
2022-08-12T21:18:08.196Z,3.40
2022-08-12T21:20:38.366Z,2.88
2022-08-12T21:23:07.728Z,2.97
2022-08-12T21:25:45.025Z,2.70
2022-08-12T21:28:14.828Z,3.15
2022-08-12T21:31:11.568Z,3.10
2022-08-12T21:34:06.190Z,2.83
2022-08-12T21:36:32.309Z,2.63
2022-08-12T21:39:18.846Z,2.60
2022-08-12T21:41:52.749Z,2.83
2022-08-12T21:44:24.212Z,2.58
2022-08-12T21:47:20.930Z,2.95
2022-08-12T21:50:03.941Z,2.70
2022-08-12T21:52:36.525Z,2.97
2022-08-12T21:55:08.316Z,2.88
2022-08-12T21:57:54.123Z,2.83
2022-08-12T22:00:36.803Z,3.13
2022-08-12T22:04:01.473Z,2.78
2022-08-12T22:06:31.351Z,3.05
2022-08-12T22:09:16.622Z,3.00
2022-08-12T22:11:56.119Z,3.05
2022-08-12T22:14:27.191Z,2.90
2022-08-12T22:16:57.539Z,3.10
2022-08-12T22:19:26.702Z,2.90
2022-08-12T22:21:56.456Z,2.97
2022-08-12T22:24:30.070Z,3.22
2022-08-12T22:27:08.191Z,3.22
2022-08-12T22:30:07.115Z,2.90
2022-08-12T22:32:38.681Z,3.10
2022-08-12T22:35:29.238Z,2.85
2022-08-12T22:38:10.980Z,3.10
2022-08-12T22:40:40.028Z,2.90
2022-08-12T22:43:30.070Z,2.90
2022-08-12T22:46:17.054Z,3.05
2022-08-12T22:48:50.626Z,3.13
2022-08-12T22:51:24.156Z,3.50
2022-08-12T22:53:55.015Z,2.90
2022-08-12T22:56:30.882Z,3.25
2022-08-12T22:59:03.083Z,3.10
2022-08-12T23:02:01.246Z,3.25
2022-08-12T23:04:29.149Z,3.10
2022-08-12T23:07:05.376Z,3.25
2022-08-12T23:09:48.245Z,2.90
2022-08-12T23:12:46.533Z,2.75
2022-08-12T23:15:14.864Z,3.00
2022-08-12T23:17:46.010Z,3.10
2022-08-12T23:20:15.511Z,3.25
2022-08-12T23:22:56.061Z,3.08
2022-08-12T23:25:54.956Z,3.22
2022-08-12T23:28:37.231Z,3.08
2022-08-12T23:31:06.496Z,3.55
2022-08-12T23:34:00.584Z,3.17
2022-08-12T23:36:39.295Z,3.50
2022-08-12T23:40:13.297Z,2.88
2022-08-12T23:42:16.996Z,3.40
2022-08-12T23:44:52.553Z,3.22
2022-08-12T23:47:22.723Z,3.40
2022-08-12T23:49:58.485Z,3.20
2022-08-12T23:52:34.201Z,3.33
2022-08-12T23:55:24.861Z,3.00
2022-08-12T23:58:20.571Z,3.35
